Tolhuin, Argentina

7:22 AM ART on August 31, 2015 (GMT -0300)
Ushuaia International Malvine Island | | Change Station
CLOSE
Current Station
Airport
Location: Ushuaia,
Elevation: 69 ft
Nearby Weather Stations

Elev 69 ft 54.84 °S, 68.31 °W | Updated 22 minutes ago

Heavy Rain
Heavy Rain
36 °F
Feels Like 25 °F
N
18
Wind Variable Wind from SW
Gusts 29 mph

Today
High -- | Low -- °F
--% Chance of Precip.
Yesterday
High -- | Low -- °F
Precip. -- in
8:13 AM 6:46 PM
Waning Gibbous, 96% visible
Pressure 29.74 in
Visibility 6.2 miles
Clouds Overcast 2000 ft
Windchill 25 °F
Dew Point 32 °F
Humidity 87%
Rainfall 0.00 in
Snow Depth Not available.
UV 0 out of 12
Pollen Not available.
Air Quality Not available.
Flu Activity Not available.
METAR SAWH 311000Z 23016G25KT 9999 +RA OVC020 02/00 Q1007
Pressure 29.74 in
Visibility 6.2 miles
Clouds Overcast 2000 ft
Windchill 25 °F
Dew Point 32 °F
Humidity 87%
Rainfall 0.00 in
Snow Depth Not available.
UV 0 out of 12
Pollen Not available.
Air Quality Not available.
Flu Activity Not available.
METAR SAWH 311000Z 23016G25KT 9999 +RA OVC020 02/00 Q1007

10-Day Weather Forecast

×

Almanac

Astronomy

Aug. 31, 2015 Rise Set
Actual Time
Civil Twilight
Nautical Twilight
Astronomical Twilight
Moon
Length of Visible Light
Length of Day
Tomorrow will be .
, % of the Moon is Illuminated

Today's Extremes

Country Highs Country Lows

Community

WunderPhotos

Upload Photos

1,851,229 photos uploaded!

WunderBlogs® & News

Nearby

Air Quality

  Air Quality AQ Index Pollutant
Not available.

Snow Depth

Station Depth Elevation

Earthquake Activity

City Distance Mag. Time & Date
Minimum magnitude displayed is 2.5.

Coastal Water Temperatures

Place Temperature

Stations

Nearby Weather Stations

Station Location Temp. Windchill Dew Point Humidity Wind Precip. Elev Updated Type